Time;durP1;ratioP1;P1;durP2;ratioP2;P2;SDS_P1;SDS_P2;PMS_P1;PMS_P2;Temp;Humidity;BMP_temperature;BMP_pressure;BME280_temperature;BME280_humidity;BME280_pressure;Samples;Min_cycle;Max_cycle;Signal;HPM_P1;HPM_P2
2023/10/02 04:00:18;;;;;;;7.82;3.90;;;;;;;14.44;93.26;101428.09;5617227;31;76733;-57
2023/10/02 04:03:21;;;;;;;9.13;4.25;;;;;;;14.44;93.26;101428.09;5603601;31;33518;-57
2023/10/02 04:06:33;;;;;;;8.13;3.83;;;;;;;14.08;90.49;101437.19;5603435;31;33666;-57
2023/10/02 04:09:36;;;;;;;7.68;4.10;;;;;;;14.17;81.44;101434.72;5603111;31;34292;-56
2023/10/02 04:12:50;;;;;;;7.22;3.90;;;;;;;14.22;81.86;101432.00;5603531;31;34104;-57
2023/10/02 04:15:53;;;;;;;6.40;3.70;;;;;;;14.31;85.01;101432.22;5603518;31;33619;-56
2023/10/02 04:19:00;;;;;;;6.07;3.53;;;;;;;14.28;87.68;101435.47;5603130;31;33638;-56
2023/10/02 04:22:06;;;;;;;7.62;3.50;;;;;;;14.34;79.42;101435.16;5603340;31;33589;-57
2023/10/02 04:25:09;;;;;;;8.55;3.45;;;;;;;14.46;78.74;101434.78;5603656;31;33726;-56
2023/10/02 04:28:12;;;;;;;7.80;3.67;;;;;;;14.54;77.95;101430.75;5602629;31;33569;-56
2023/10/02 04:31:20;;;;;;;9.10;3.83;;;;;;;14.61;96.67;101433.94;5603486;31;33602;-57
2023/10/02 04:37:26;;;;;;;5.43;3.45;;;;;;;14.59;85.25;101437.97;5583415;31;33589;-56
2023/10/02 04:43:57;;;;;;;7.22;3.30;;;;;;;14.60;93.75;101439.59;5582577;32;33559;-57
2023/10/02 04:47:00;;;;;;;10.10;3.70;;;;;;;14.66;79.79;101441.16;5582835;31;34394;-56
2023/10/02 04:59:21;;;;;;;9.27;4.43;;;;;;;14.70;80.16;101453.00;5582108;31;34449;-56
2023/10/02 05:02:24;;;;;;;12.98;3.72;;;;;;;14.71;78.65;101449.25;5582746;32;34368;-56
2023/10/02 05:05:34;;;;;;;9.57;3.83;;;;;;;14.71;78.98;101466.22;5582312;32;34319;-56
2023/10/02 05:09:19;;;;;;;9.02;3.80;;;;;;;14.81;78.88;101468.06;5581941;32;33614;-55
2023/10/02 05:12:06;;;;;;;7.97;3.83;;;;;;;14.87;83.70;101472.34;5568743;32;34225;-56
2023/10/02 05:15:09;;;;;;;12.80;3.90;;;;;;;14.97;91.00;101474.94;5569056;32;34233;-55
2023/10/02 05:18:16;;;;;;;7.87;3.70;;;;;;;14.92;81.81;101480.38;5569737;32;33639;-56
2023/10/02 05:21:19;;;;;;;8.32;4.15;;;;;;;14.98;85.11;101481.16;5569803;32;33689;-55
2023/10/02 05:24:23;;;;;;;8.77;3.97;;;;;;;14.96;85.64;101475.22;5569787;32;33658;-57
2023/10/02 05:27:30;;;;;;;11.82;4.87;;;;;;;15.00;78.36;101487.87;5569674;32;34235;-55
2023/10/02 05:30:42;;;;;;;8.40;4.43;;;;;;;14.96;87.96;101483.31;5566930;32;33551;-56
2023/10/02 05:33:44;;;;;;;7.65;4.32;;;;;;;14.87;88.90;101491.22;5569239;32;33570;-55
2023/10/02 05:37:11;;;;;;;9.18;4.25;;;;;;;14.86;83.19;101489.59;5569912;31;33614;-55
2023/10/02 05:43:23;;;;;;;35.13;6.57;;;;;;;14.85;80.23;101495.28;5569664;32;33590;-55
2023/10/02 05:46:52;;;;;;;9.85;4.37;;;;;;;14.92;79.82;101504.66;5569337;32;33586;-55
2023/10/02 05:49:53;;;;;;;9.13;4.10;;;;;;;14.96;77.94;101510.31;5569488;32;33756;-54
2023/10/02 05:52:56;;;;;;;15.23;4.90;;;;;;;14.98;78.06;101508.94;5569237;32;33670;-56
2023/10/02 05:56:05;;;;;;;17.25;5.03;;;;;;;15.11;82.19;101510.19;5569233;32;33616;-55
2023/10/02 05:59:09;;;;;;;11.43;5.28;;;;;;;15.12;79.51;101513.72;5569168;32;33809;-56
2023/10/02 06:02:19;;;;;;;9.55;4.43;;;;;;;15.17;79.58;101519.06;5568836;32;34305;-55
2023/10/02 06:05:21;;;;;;;16.52;5.45;;;;;;;15.21;79.89;101520.91;5569177;32;33483;-55
2023/10/02 06:08:25;;;;;;;14.20;4.70;;;;;;;15.31;81.51;101524.63;5568541;32;33964;-55
2023/10/02 06:11:32;;;;;;;10.73;5.10;;;;;;;15.48;83.35;101525.81;5568223;32;34478;-55
2023/10/02 06:14:38;;;;;;;17.10;5.05;;;;;;;15.53;78.49;101522.25;5565733;32;34335;-57
2023/10/02 06:17:43;;;;;;;19.08;5.60;;;;;;;15.85;94.93;101528.97;5562748;32;33718;-57
2023/10/02 06:20:58;;;;;;;14.73;5.05;;;;;;;15.98;84.91;101537.19;5560043;32;34210;-57
2023/10/02 06:24:01;;;;;;;12.20;5.10;;;;;;;16.02;90.14;101537.44;5560078;32;33955;-57
2023/10/02 06:27:17;;;;;;;17.87;5.85;;;;;;;16.10;90.77;101541.41;5568495;32;33632;-57
2023/10/02 06:30:19;;;;;;;15.20;6.62;;;;;;;16.15;80.90;101534.03;5560880;32;33886;-58
2023/10/02 06:33:23;;;;;;;16.17;6.18;;;;;;;16.28;78.67;101540.62;5557292;32;34299;-57
2023/10/02 06:36:25;;;;;;;18.45;5.95;;;;;;;16.27;78.27;101539.03;5565950;32;34293;-57
2023/10/02 06:39:35;;;;;;;19.45;5.97;;;;;;;16.28;76.46;101531.72;5562233;32;34165;-57
2023/10/02 06:42:48;;;;;;;14.02;5.20;;;;;;;16.27;77.65;101543.62;5552420;32;32714;-58
2023/10/02 06:46:06;;;;;;;11.82;5.80;;;;;;;16.33;81.21;101542.50;5563037;32;33398;-57
2023/10/02 06:49:15;;;;;;;15.32;5.60;;;;;;;16.42;78.70;101544.25;5568444;32;33201;-57
2023/10/02 06:52:21;;;;;;;17.05;6.20;;;;;;;16.55;75.16;101528.37;5567185;32;34343;-57
2023/10/02 06:55:26;;;;;;;;;;;;;;;16.71;80.33;101531.66;5568107;32;33597;-57
2023/10/02 06:58:29;;;;;;;12.80;6.32;;;;;;;16.85;83.83;101533.41;5567894;32;34647;-58
2023/10/02 07:01:32;;;;;;;11.40;5.90;;;;;;;16.95;75.75;101542.44;5566794;32;34223;-57
2023/10/02 07:04:36;;;;;;;10.68;5.50;;;;;;;17.04;79.13;101544.19;5562742;32;34428;-58
2023/10/02 07:07:58;;;;;;;15.55;6.15;;;;;;;17.09;74.20;101538.69;5568038;32;33578;-58
2023/10/02 07:11:10;;;;;;;11.27;6.28;;;;;;;17.05;71.76;101539.56;5566184;32;34358;-57
2023/10/02 07:14:14;;;;;;;14.35;6.03;;;;;;;17.10;71.84;101542.22;5563742;32;34276;-58
2023/10/02 07:17:17;;;;;;;12.98;6.20;;;;;;;17.16;75.11;101545.66;5564042;32;33932;-57
2023/10/02 07:20:20;;;;;;;15.75;6.72;;;;;;;17.28;72.86;101544.06;5552933;32;33591;-57
2023/10/02 07:23:24;;;;;;;11.55;6.03;;;;;;;17.50;77.82;101548.03;5563401;32;33618;-56
2023/10/02 07:26:49;;;;;;;16.50;7.00;;;;;;;17.60;82.78;101553.28;5565921;32;33650;-55
2023/10/02 07:29:56;;;;;;;15.30;7.83;;;;;;;17.77;85.26;101547.31;5567028;32;33575;-56
2023/10/02 07:33:05;;;;;;;14.98;7.07;;;;;;;17.71;75.12;101557.41;5564692;32;34365;-55
2023/10/02 07:36:14;;;;;;;18.17;8.60;;;;;;;17.73;77.94;101555.22;5563956;32;34398;-55
2023/10/02 07:42:38;;;;;;;15.55;7.40;;;;;;;17.77;74.01;101560.88;5564947;32;33729;-55
2023/10/02 07:45:40;;;;;;;14.05;7.82;;;;;;;17.83;77.42;101555.03;5568377;32;34310;-55
2023/10/02 07:48:55;;;;;;;15.65;8.15;;;;;;;17.95;73.51;101551.84;5564939;32;33655;-55
2023/10/02 07:51:58;;;;;;;;;;;;;;;18.04;75.76;101555.44;5563915;32;34056;-58
2023/10/02 07:55:00;;;;;;;18.23;9.40;;;;;;;18.15;71.22;101549.84;5566819;32;33895;-56
2023/10/02 07:58:04;;;;;;;20.02;9.10;;;;;;;18.15;76.41;101558.78;5564655;32;33490;-56
2023/10/02 08:01:13;;;;;;;18.62;8.05;;;;;;;18.22;72.74;101561.09;5567619;32;33522;-55
2023/10/02 08:04:16;;;;;;;11.90;7.40;;;;;;;18.38;82.17;101561.59;5567997;32;33324;-56
2023/10/02 08:07:19;;;;;;;18.85;6.50;;;;;;;18.37;72.28;101565.37;5565420;32;33705;-55
2023/10/02 08:10:53;;;;;;;15.48;6.30;;;;;;;18.43;76.79;101564.16;5565769;32;33782;-55
2023/10/02 08:13:55;;;;;;;15.30;6.43;;;;;;;18.33;64.85;101562.47;5565828;32;34332;-55
2023/10/02 08:17:08;;;;;;;13.00;5.50;;;;;;;18.33;70.84;101567.91;5565800;32;34298;-56
2023/10/02 08:20:16;;;;;;;13.32;5.80;;;;;;;18.38;82.03;101556.16;5566267;32;33806;-55
2023/10/02 08:23:21;;;;;;;12.05;5.85;;;;;;;18.48;74.46;101559.44;5566782;32;33413;-55
2023/10/02 08:26:25;;;;;;;15.52;5.22;;;;;;;18.61;71.51;101563.25;5567505;32;33642;-55
2023/10/02 08:29:33;;;;;;;12.25;5.15;;;;;;;18.53;64.45;101553.88;5567057;32;33678;-55
2023/10/02 08:32:35;;;;;;;12.98;4.68;;;;;;;18.49;63.40;101554.81;5566199;32;33601;-55
2023/10/02 08:35:46;;;;;;;9.88;4.45;;;;;;;18.47;63.93;101559.72;5565888;32;33779;-58
2023/10/02 08:38:49;;;;;;;11.27;6.10;;;;;;;18.60;70.90;101553.47;5562878;32;33644;-58
2023/10/02 08:41:59;;;;;;;10.02;5.50;;;;;;;18.62;66.42;101555.91;5563011;32;33717;-58
2023/10/02 08:45:04;;;;;;;13.35;4.68;;;;;;;18.78;68.11;101555.28;5558561;32;35913;-58
2023/10/02 08:48:07;;;;;;;12.02;4.95;;;;;;;18.79;65.27;101550.62;5569229;32;34316;-58
2023/10/02 08:51:10;;;;;;;16.27;4.80;;;;;;;18.85;75.45;101562.19;5565700;32;33634;-58
2023/10/02 08:54:14;;;;;;;88.37;10.27;;;;;;;18.91;74.70;101550.91;5561480;32;33755;-58
2023/10/02 08:57:18;;;;;;;14.05;5.93;;;;;;;18.94;64.53;101555.72;5562954;32;33624;-57
2023/10/02 09:00:24;;;;;;;12.67;5.23;;;;;;;18.97;64.42;101555.13;5564583;32;33588;-57
2023/10/02 09:03:26;;;;;;;14.85;5.05;;;;;;;19.06;64.99;101554.38;5566753;32;33271;-58
2023/10/02 09:06:36;;;;;;;13.10;5.22;;;;;;;19.15;70.15;101556.03;5563889;32;33536;-58
2023/10/02 09:09:45;;;;;;;11.10;4.80;;;;;;;19.17;65.23;101555.72;5568729;32;33734;-58
2023/10/02 09:13:14;;;;;;;11.25;4.93;;;;;;;19.13;70.99;101555.53;5567078;32;33668;-58
2023/10/02 09:16:18;;;;;;;10.75;5.80;;;;;;;19.18;64.30;101551.91;5559814;31;33617;-58
2023/10/02 09:19:31;;;;;;;10.43;5.22;;;;;;;19.19;65.67;101548.06;5569648;32;33682;-58
2023/10/02 09:22:37;;;;;;;9.63;5.62;;;;;;;19.21;61.45;101540.41;5568053;32;33633;-58
2023/10/02 09:26:16;;;;;;;13.88;5.45;;;;;;;19.25;63.49;101535.94;5567763;32;33818;-58
2023/10/02 09:29:21;;;;;;;15.55;5.95;;;;;;;19.39;64.96;101541.31;5568079;32;34358;-58
2023/10/02 09:32:25;;;;;;;13.10;5.20;;;;;;;19.34;62.53;101536.00;5566810;32;33775;-60
2023/10/02 09:35:32;;;;;;;12.02;4.85;;;;;;;19.33;63.20;101532.47;5567169;31;33779;-58
2023/10/02 09:38:56;;;;;;;16.52;5.53;;;;;;;19.37;64.05;101522.59;5561238;32;33719;-58
2023/10/02 09:42:09;;;;;;;11.93;5.05;;;;;;;19.45;70.87;101527.25;5562629;32;33752;-58
2023/10/02 09:45:15;;;;;;;10.80;4.55;;;;;;;19.53;59.89;101530.34;5569328;32;33673;-58
2023/10/02 09:49:01;;;;;;;11.48;5.07;;;;;;;19.51;60.41;101536.09;5567087;32;33679;-57
2023/10/02 09:52:15;;;;;;;24.75;5.70;;;;;;;19.64;61.09;101531.72;5567038;32;33650;-58
2023/10/02 09:55:46;;;;;;;11.77;5.00;;;;;;;19.73;61.35;101531.72;5563467;32;34429;-58
2023/10/02 09:59:12;;;;;;;11.60;5.03;;;;;;;19.75;62.31;101532.22;5550376;32;34556;-58
2023/10/02 10:05:45;;;;;;;18.75;5.12;;;;;;;19.82;61.86;101541.53;5563749;32;33914;-58
2023/10/02 10:12:32;;;;;;;11.02;4.70;;;;;;;19.88;63.66;101525.88;5564086;32;34049;-58
2023/10/02 10:15:36;;;;;;;10.63;4.57;;;;;;;19.84;59.50;101527.63;5555597;32;34359;-58
2023/10/02 10:22:39;;;;;;;11.85;5.03;;;;;;;19.90;59.08;101521.72;5559855;32;33821;-58
2023/10/02 10:25:44;;;;;;;44.03;6.82;;;;;;;19.96;59.30;101516.94;5551025;32;34454;-58
2023/10/02 10:28:53;;;;;;;11.23;5.00;;;;;;;19.98;60.92;101511.97;5559143;32;34305;-58
2023/10/02 10:32:05;;;;;;;15.52;4.95;;;;;;;19.99;57.94;101518.22;5560994;32;33736;-58
2023/10/02 10:35:14;;;;;;;27.45;5.87;;;;;;;20.01;60.07;101510.56;5556941;32;33190;-57
2023/10/02 10:38:29;;;;;;;12.27;5.03;;;;;;;20.10;66.83;101514.09;5564280;32;34354;-58
2023/10/02 10:41:31;;;;;;;12.35;4.70;;;;;;;20.24;57.72;101506.59;5558131;32;33371;-58
2023/10/02 10:44:43;;;;;;;14.75;4.15;;;;;;;20.15;57.13;101501.13;5562313;32;33738;-58
2023/10/02 10:47:46;;;;;;;10.55;4.78;;;;;;;20.28;64.69;101504.03;5567355;32;33722;-58
2023/10/02 10:50:59;;;;;;;12.48;5.43;;;;;;;20.29;59.45;101492.81;5561262;32;33583;-58
2023/10/02 10:54:12;;;;;;;9.68;4.40;;;;;;;20.25;59.98;101489.12;5565676;32;33621;-58
2023/10/02 10:57:22;;;;;;;11.23;4.55;;;;;;;20.38;66.62;101476.50;5557832;32;33617;-58
2023/10/02 11:00:25;;;;;;;16.87;4.18;;;;;;;20.41;63.44;101479.38;5563037;32;33626;-58
2023/10/02 11:03:31;;;;;;;11.75;4.75;;;;;;;20.41;58.17;101478.59;5559546;32;34711;-58
2023/10/02 11:06:41;;;;;;;7.57;3.70;;;;;;;20.38;56.14;101468.31;5560805;32;34092;-58
2023/10/02 11:10:16;;;;;;;8.23;3.70;;;;;;;20.40;62.19;101464.16;5566673;31;33445;-58
2023/10/02 11:13:24;;;;;;;9.55;4.20;;;;;;;20.40;61.59;101453.28;5560296;32;33229;-58
2023/10/02 11:16:31;;;;;;;9.95;4.30;;;;;;;20.47;62.18;101466.41;5566501;32;33723;-58
2023/10/02 11:19:44;;;;;;;10.27;4.10;;;;;;;20.48;59.80;101457.09;5566820;31;33578;-58
2023/10/02 11:22:49;;;;;;;9.00;4.00;;;;;;;20.43;60.68;101451.84;5572299;31;33651;-60
2023/10/02 11:25:58;;;;;;;8.75;4.00;;;;;;;20.57;69.21;101463.38;5558948;32;32234;-58
2023/10/02 11:29:20;;;;;;;11.82;4.57;;;;;;;20.62;65.52;101451.53;5561878;32;33729;-59
2023/10/02 11:32:23;;;;;;;11.25;4.28;;;;;;;20.64;64.52;101450.09;5558103;32;34447;-58
2023/10/02 11:35:28;;;;;;;8.05;3.62;;;;;;;20.61;56.23;101448.00;5565892;32;33625;-58
2023/10/02 11:38:33;;;;;;;8.27;4.30;;;;;;;20.63;57.46;101440.31;5562594;32;33622;-58
2023/10/02 11:41:37;;;;;;;10.23;4.22;;;;;;;20.78;57.73;101443.66;5562080;32;34464;-58
2023/10/02 11:44:40;;;;;;;11.35;4.07;;;;;;;20.72;60.38;101440.28;5566561;32;33375;-58
2023/10/02 11:47:42;;;;;;;11.07;4.05;;;;;;;20.71;57.31;101437.91;5561377;32;31119;-58
2023/10/02 11:50:50;;;;;;;8.03;3.57;;;;;;;20.75;60.89;101436.13;5562635;32;33275;-58
2023/10/02 11:53:55;;;;;;;13.80;3.62;;;;;;;20.74;57.88;101434.53;5565713;32;33724;-58
2023/10/02 11:56:57;;;;;;;8.63;4.12;;;;;;;20.84;56.71;101424.09;5562301;32;32312;-58
2023/10/02 12:00:08;;;;;;;7.05;3.65;;;;;;;20.81;56.76;101423.94;5561596;32;34318;-58
2023/10/02 12:03:14;;;;;;;9.40;3.40;;;;;;;20.81;57.36;101419.28;5562131;32;34252;-58
2023/10/02 12:06:18;;;;;;;7.57;3.83;;;;;;;20.84;58.94;101405.00;5559311;32;33639;-60
2023/10/02 12:09:23;;;;;;;7.90;3.37;;;;;;;20.92;58.56;101417.00;5561059;32;34331;-58
2023/10/02 12:12:27;;;;;;;;;;;;;;;20.97;60.33;101403.22;5561131;32;34360;-58
2023/10/02 12:15:31;;;;;;;10.63;3.70;;;;;;;20.94;57.86;101409.31;5560261;32;34635;-58
2023/10/02 12:18:34;;;;;;;20.83;4.12;;;;;;;20.98;60.27;101404.81;5564871;32;33758;-59
2023/10/02 12:21:39;;;;;;;6.80;3.47;;;;;;;20.95;57.03;101400.00;5565232;32;33893;-58
2023/10/02 12:24:59;;;;;;;9.57;3.87;;;;;;;21.02;60.54;101403.00;5562798;32;34455;-63
2023/10/02 12:28:02;;;;;;;10.77;4.10;;;;;;;21.02;55.35;101394.03;5566936;32;34219;-58
2023/10/02 12:31:09;;;;;;;9.77;3.65;;;;;;;21.11;55.27;101392.87;5563001;32;33752;-58
2023/10/02 12:34:13;;;;;;;8.52;3.83;;;;;;;21.11;57.39;101381.97;5561406;32;32829;-59
2023/10/02 12:37:20;;;;;;;13.43;3.85;;;;;;;21.19;56.34;101387.72;5555024;31;33665;-58
2023/10/02 12:40:31;;;;;;;8.30;3.53;;;;;;;21.16;54.87;101383.75;5562615;32;34313;-58
2023/10/02 12:43:35;;;;;;;10.77;4.30;;;;;;;21.24;56.27;101385.63;5566089;32;33365;-58
2023/10/02 12:46:43;;;;;;;9.27;4.07;;;;;;;21.31;56.47;101374.19;5565714;32;32308;-58
2023/10/02 12:49:45;;;;;;;8.45;3.42;;;;;;;21.28;57.96;101375.66;5563126;32;33717;-58
2023/10/02 12:52:48;;;;;;;10.45;3.75;;;;;;;21.24;56.93;101371.97;5562794;32;33703;-58
2023/10/02 12:55:52;;;;;;;8.95;3.42;;;;;;;21.23;58.30;101364.94;5557292;32;33728;-58
2023/10/02 12:58:54;;;;;;;10.32;3.47;;;;;;;21.22;57.58;101362.53;5561275;32;33826;-59
2023/10/02 13:01:57;;;;;;;12.05;3.70;;;;;;;21.29;58.71;101358.19;5556446;32;33598;-59
2023/10/02 13:05:04;;;;;;;11.48;4.15;;;;;;;21.32;57.42;101351.25;5556591;32;33717;-58
2023/10/02 13:08:07;;;;;;;14.15;4.22;;;;;;;21.37;59.80;101348.38;5559631;32;34235;-58
2023/10/02 13:11:12;;;;;;;11.00;3.87;;;;;;;21.41;58.58;101349.31;5558261;32;33161;-59
2023/10/02 13:14:18;;;;;;;;;;;;;;;21.40;56.47;101349.66;5563102;32;33644;-58
2023/10/02 13:17:21;;;;;;;12.98;3.42;;;;;;;21.41;56.15;101343.84;5560393;32;33984;-56
2023/10/02 13:20:24;;;;;;;11.40;3.53;;;;;;;21.39;58.03;101337.94;5562446;32;34273;-56
2023/10/02 13:23:26;;;;;;;8.60;3.37;;;;;;;21.40;58.31;101330.56;5566500;32;33815;-55
2023/10/02 13:26:29;;;;;;;6.85;3.30;;;;;;;21.47;57.96;101330.81;5566058;32;33653;-56
2023/10/02 13:29:34;;;;;;;7.65;3.12;;;;;;;21.49;56.30;101334.00;5566129;32;34292;-56
2023/10/02 13:32:37;;;;;;;8.93;3.30;;;;;;;21.46;56.25;101321.84;5563349;32;34401;-56
2023/10/02 13:35:39;;;;;;;16.17;4.45;;;;;;;21.52;57.32;101323.25;5562521;31;34356;-56
2023/10/02 13:38:44;;;;;;;10.88;3.75;;;;;;;21.53;58.96;101327.56;5562639;32;33621;-55
2023/10/02 13:41:47;;;;;;;11.68;3.60;;;;;;;21.57;57.39;101320.31;5555220;32;33280;-57
2023/10/02 13:44:50;;;;;;;11.60;3.55;;;;;;;21.62;56.70;101316.59;5564145;32;33829;-55
2023/10/02 13:47:55;;;;;;;14.82;3.87;;;;;;;21.66;56.88;101314.00;5561655;32;34236;-56
2023/10/02 13:50:57;;;;;;;11.93;3.65;;;;;;;21.66;56.07;101311.28;5567937;32;33750;-56
2023/10/02 13:54:06;;;;;;;13.05;3.70;;;;;;;21.62;59.89;101305.66;5555920;32;34958;-55
2023/10/02 13:57:08;;;;;;;9.25;3.95;;;;;;;21.66;58.68;101303.91;5557168;32;33328;-56
2023/10/02 14:00:12;;;;;;;11.90;4.05;;;;;;;21.61;57.03;101301.34;5561632;32;32226;-56
2023/10/02 14:03:15;;;;;;;14.07;3.47;;;;;;;21.68;57.26;101298.88;5560624;32;34322;-55
2023/10/02 14:06:18;;;;;;;10.63;3.47;;;;;;;21.68;57.60;101296.16;5559903;32;33687;-56
2023/10/02 14:09:23;;;;;;;11.12;3.70;;;;;;;21.69;57.45;101296.94;5562540;32;33607;-56
2023/10/02 14:12:26;;;;;;;10.30;3.33;;;;;;;21.77;60.06;101296.09;5562848;32;33177;-56
2023/10/02 14:15:30;;;;;;;10.35;3.58;;;;;;;21.72;57.49;101290.81;5563732;32;33593;-56
2023/10/02 14:18:34;;;;;;;16.08;3.80;;;;;;;21.70;61.98;101285.72;5564127;32;33697;-56
2023/10/02 14:21:37;;;;;;;13.57;4.40;;;;;;;21.70;58.23;101283.00;5560791;32;33757;-56
2023/10/02 14:24:39;;;;;;;18.08;4.00;;;;;;;21.70;56.12;101283.00;5562714;32;33659;-56
2023/10/02 14:27:43;;;;;;;13.18;4.47;;;;;;;21.72;59.46;101286.19;5562394;32;34619;-55
2023/10/02 14:30:45;;;;;;;16.30;3.95;;;;;;;21.74;59.09;101277.66;5560151;32;33685;-56
2023/10/02 14:33:48;;;;;;;9.38;3.40;;;;;;;21.79;59.35;101282.94;5566864;32;34367;-56
2023/10/02 14:36:50;;;;;;;8.05;3.65;;;;;;;21.73;59.31;101289.72;5562490;31;33817;-56
2023/10/02 14:39:54;;;;;;;14.68;3.75;;;;;;;21.76;56.59;101281.66;5562038;32;33675;-55
2023/10/02 14:42:57;;;;;;;11.23;4.53;;;;;;;21.73;58.92;101278.81;5558720;32;33569;-55
2023/10/02 14:46:00;;;;;;;10.43;3.72;;;;;;;21.75;58.31;101285.50;5561616;32;33716;-55
2023/10/02 14:49:02;;;;;;;12.80;3.90;;;;;;;21.71;57.32;101276.38;5569117;32;33639;-56
2023/10/02 14:52:05;;;;;;;10.55;3.75;;;;;;;21.69;56.38;101275.13;5568521;32;33574;-55
2023/10/02 14:55:09;;;;;;;8.13;3.40;;;;;;;21.64;58.66;101280.78;5568894;32;33676;-57
2023/10/02 14:58:17;;;;;;;15.38;4.55;;;;;;;21.66;60.96;101273.09;5568479;32;33741;-55
2023/10/02 15:01:19;;;;;;;14.15;6.32;;;;;;;21.60;59.20;101282.59;5568397;32;33733;-56
2023/10/02 15:04:23;;;;;;;10.77;4.97;;;;;;;21.51;58.39;101278.00;5561459;32;33567;-57
2023/10/02 15:07:25;;;;;;;9.95;3.85;;;;;;;21.50;60.15;101281.84;5566559;32;33409;-56
